Stations météo

réclame
Mon MeteoGroup
Bielsa, Espagne (8103): Température de l'air & dewpoint: 14.10.2018 04:00:00 - 20.10.2018 04:00:00 (CEST)Bielsa, Espagne (8103): Vitesse du vent & gusts: 14.10.2018 04:00:00 - 20.10.2018 04:00:00 (CEST)Bielsa, Espagne (8103): Direction du vent: 14.10.2018 04:00:00 - 20.10.2018 04:00:00 (CEST)Bielsa, Espagne (8103): visibility: 14.10.2018 04:00:00 - 20.10.2018 04:00:00 (CEST)Bielsa, Espagne (8103): Ensoleillement: 14.10.2018 04:00:00 - 20.10.2018 04:00:00 (CEST)Bielsa, Espagne (8103): Quantités de précipitations: 14.10.2018 04:00:00 - 20.10.2018 04:00:00 (CEST)
Date & Time tt [°C] td [°C] ff [km/h] ff [knt] fx [km/h] fx [knt] dd vv [km] sd [min] rr [mm]
20.10.2018 04:00:00 - - - - - - - - - -
20.10.2018 03:00:00 10,6 10,4 3 2 9 5 WNW 20 0 0,0
20.10.2018 02:00:00 10,4 10,0 2 1 16 9 E 20 0 -
20.10.2018 01:00:00 10,5 10,3 5 3 16 9 NNW 20 0 0,0
20.10.2018 00:00:00 10,0 9,7 3 1 14 7 NNW 17 0 0,0
19.10.2018 23:00:00 10,9 10,6 3 1 13 7 WNW 17 0 0,0
19.10.2018 22:00:00 10,6 10,3 2 1 8 5 N 10 0 0,0
19.10.2018 21:00:00 11,8 11,3 2 1 15 8 N 12 0 0,0
19.10.2018 20:00:00 - - - - - - - - - -
19.10.2018 19:00:00 13,8 12,6 2 1 14 8 NW 20 0 0,0
19.10.2018 18:00:00 15,5 13,7 1 1 15 8 NW 20 0 0,0
19.10.2018 17:00:00 16,8 13,8 1 1 18 10 S 18 0 0,2
19.10.2018 16:00:00 19,1 11,4 5 3 16 9 S 20 2 0,0
19.10.2018 15:00:00 20,2 9,7 5 3 19 10 SE 20 41 0,0
19.10.2018 14:00:00 21,3 12,2 2 1 10 5 SSW 20 33 -
19.10.2018 13:00:00 17,2 12,1 3 1 10 5 ESE 20 11 0,0
19.10.2018 12:00:00 16,4 10,9 3 1 16 9 WNW 20 6 0,0
19.10.2018 11:00:00 12,6 10,6 3 1 10 6 WNW 20 0 0,0
19.10.2018 10:00:00 11,0 9,4 3 2 16 9 NNW 20 0 0,0
19.10.2018 09:00:00 10,2 8,5 5 3 14 8 NW 20 0 0,0
19.10.2018 08:00:00 9,1 7,8 3 2 23 12 WNW 20 0 -
19.10.2018 07:00:00 9,6 7,6 8 4 29 16 NNW 20 0 0,0
19.10.2018 06:00:00 9,5 7,6 3 2 28 15 WSW 20 0 0,0
19.10.2018 05:00:00 10,0 8,1 12 7 24 13 N 20 0 0,0
19.10.2018 04:00:00 8,9 8,3 5 3 13 7 NW 20 0 0,0
19.10.2018 03:00:00 8,6 8,0 3 2 15 8 WNW 20 0 0,0
19.10.2018 02:00:00 8,7 8,3 4 2 16 8 NW 20 0 -
19.10.2018 01:00:00 9,3 8,7 4 2 13 7 NNW 20 0 0,0
19.10.2018 00:00:00 9,4 8,8 2 1 12 6 NW 20 0 0,0
18.10.2018 23:00:00 10,3 9,2 4 2 19 10 W 20 0 0,0
18.10.2018 22:00:00 9,7 9,4 3 2 12 7 NW 20 0 0,0
18.10.2018 21:00:00 10,1 9,3 2 1 11 6 NNW 20 0 0,0
18.10.2018 20:00:00 11,5 10,3 2 1 6 4 NNW 20 0 -
18.10.2018 19:00:00 13,7 11,9 1 1 5 3 N 20 0 0,0
18.10.2018 18:00:00 15,8 13,1 0 0 8 4 N 20 0 0,0
18.10.2018 17:00:00 16,8 11,6 1 1 8 4 ESE 20 0 0,0
18.10.2018 16:00:00 17,2 10,5 3 1 9 5 SE 20 0 0,0
18.10.2018 15:00:00 16,7 10,8 4 2 9 5 ESE 20 0 0,0
18.10.2018 14:00:00 16,1 10,4 4 2 19 10 E 20 0 -
18.10.2018 13:00:00 15,6 9,7 4 2 15 8 ESE 20 7 0,0
18.10.2018 12:00:00 14,1 9,6 5 3 14 8 E 20 31 0,0
18.10.2018 11:00:00 11,3 9,6 4 2 16 9 ESE 20 4 0,0
18.10.2018 10:00:00 9,1 8,8 3 1 6 3 SE 20 0 0,0
18.10.2018 09:00:00 6,3 5,9 2 1 6 3 ESE 20 0 0,0
18.10.2018 08:00:00 6,1 5,9 2 1 15 8 NNW 20 0 -
18.10.2018 07:00:00 6,7 6,4 0 0 9 5 N 20 0 0,0
18.10.2018 06:00:00 7,0 6,7 1 1 8 4 WNW 20 0 0,0
18.10.2018 05:00:00 7,7 7,4 2 1 9 5 WSW 20 0 0,0
18.10.2018 04:00:00 8,3 8,0 1 1 8 4 NW 20 0 0,0
18.10.2018 03:00:00 8,8 8,4 1 1 10 6 ENE 20 0 0,0
18.10.2018 02:00:00 8,9 8,7 2 1 12 7 NW 20 0 -
18.10.2018 01:00:00 8,9 8,7 4 2 10 5 NNW 20 0 0,0
18.10.2018 00:00:00 8,7 8,4 0 0 14 8 N 20 0 0,0
17.10.2018 23:00:00 8,2 7,8 2 1 10 6 WNW 20 0 0,0
17.10.2018 22:00:00 8,4 8,0 1 1 11 6 WNW 20 0 0,0
17.10.2018 21:00:00 9,1 8,7 2 1 14 8 NW 20 0 0,0
17.10.2018 20:00:00 10,0 9,0 1 1 7 4 N 20 0 -
17.10.2018 19:00:00 11,2 9,7 2 1 13 7 WNW 20 0 0,0
17.10.2018 18:00:00 12,6 10,5 2 1 10 5 NW 20 0 0,0
17.10.2018 17:00:00 14,8 11,0 2 1 17 9 WNW 20 0 0,0
17.10.2018 16:00:00 16,8 9,0 7 4 26 14 SSE 20 16 0,0
17.10.2018 15:00:00 18,8 8,4 8 4 29 16 ESE 20 41 0,0
17.10.2018 14:00:00 18,9 9,4 7 4 28 15 ESE 20 54 -
17.10.2018 13:00:00 18,0 10,2 7 4 22 12 S 20 59 0,0
17.10.2018 12:00:00 14,8 9,4 5 3 13 7 ESE 20 60 0,0
17.10.2018 11:00:00 11,4 10,6 1 1 6 3 SSE 20 48 0,0
17.10.2018 10:00:00 7,1 6,8 1 1 4 2 ESE 20 0 0,0
17.10.2018 09:00:00 6,1 5,9 1 1 4 2 NNE 3,0 0 0,0
17.10.2018 08:00:00 6,5 6,2 1 1 14 7 SSW 20 0 -
17.10.2018 07:00:00 6,9 6,5 3 2 16 9 NW 20 0 0,0
17.10.2018 06:00:00 6,1 5,9 3 1 13 7 WNW 20 0 0,0
17.10.2018 05:00:00 6,0 5,8 2 1 8 4 NW 16 0 0,0
17.10.2018 04:00:00 6,6 6,2 3 1 11 6 NNW 20 0 0,0
17.10.2018 03:00:00 6,9 6,5 1 1 14 7 N 19 0 0,0
17.10.2018 02:00:00 7,8 7,6 5 3 12 7 N 20 0 -
17.10.2018 01:00:00 8,2 7,8 2 1 12 6 W 16 0 0,0
17.10.2018 00:00:00 9,3 9,0 2 1 6 4 NNW 15 0 0,0
16.10.2018 23:00:00 10,7 10,4 3 1 13 7 NW 20 0 0,0
16.10.2018 22:00:00 10,7 10,4 1 1 4 2 NW 14 0 0,0
16.10.2018 21:00:00 11,4 11,0 1 1 4 2 N 14 0 0,0
16.10.2018 20:00:00 11,9 11,3 1 1 5 3 N 18 0 -
16.10.2018 19:00:00 12,9 12,0 2 1 10 5 NNW 15 0 0,4
16.10.2018 18:00:00 15,1 11,3 4 2 23 12 SSE 20 0 0,0
16.10.2018 17:00:00 15,6 9,9 5 3 20 11 ESE 20 0 0,0
16.10.2018 16:00:00 15,1 11,4 4 2 11 6 WNW 20 0 0,0
16.10.2018 15:00:00 15,2 11,3 1 1 7 4 W 20 0 0,0
16.10.2018 14:00:00 16,9 10,8 2 1 22 12 SSE 20 30 -
16.10.2018 13:00:00 17,4 8,5 9 5 20 11 SSE 20 60 0,0
16.10.2018 12:00:00 15,1 9,2 9 5 21 11 SSE 20 57 0,0
16.10.2018 11:00:00 10,8 8,8 2 1 6 3 E 20 49 0,0
16.10.2018 10:00:00 6,6 6,2 1 1 6 4 SSE 20 0 0,0
16.10.2018 09:00:00 5,7 5,6 3 1 13 7 NNW 20 0 0,0
16.10.2018 08:00:00 5,7 5,5 2 1 12 7 NNW 20 0 -
16.10.2018 07:00:00 6,5 5,9 2 1 18 10 NW 20 0 0,0
16.10.2018 06:00:00 7,2 6,8 5 3 16 8 N 20 0 0,0
16.10.2018 05:00:00 7,3 7,0 2 1 8 4 NW 20 0 0,0
16.10.2018 04:00:00 8,6 8,1 2 1 15 8 WNW 20 0 0,0
16.10.2018 03:00:00 9,2 8,9 1 1 11 6 SE 20 0 0,0
16.10.2018 02:00:00 9,2 8,9 7 4 19 10 N 20 0 -
16.10.2018 01:00:00 9,0 8,7 2 1 4 2 NNW 20 0 0,0
16.10.2018 00:00:00 9,4 9,0 1 1 6 4 N 20 0 0,0
15.10.2018 23:00:00 10,0 9,6 1 1 6 3 SSW 20 0 0,0
15.10.2018 22:00:00 10,4 10,0 1 1 8 4 NNW 20 0 0,0
15.10.2018 21:00:00 10,4 9,8 1 1 3 2 NW 20 0 0,0
15.10.2018 20:00:00 10,9 9,8 2 1 6 3 NW 20 0 -
15.10.2018 19:00:00 12,2 9,9 2 1 15 8 SW 20 0 0,0
15.10.2018 18:00:00 12,9 9,9 5 3 16 9 SSE 20 0 0,0
15.10.2018 17:00:00 13,8 10,2 4 2 21 11 SE 20 0 0,0
15.10.2018 16:00:00 14,2 10,0 5 3 12 7 SSE 20 0 0,0
15.10.2018 15:00:00 14,0 9,2 6 3 18 10 SE 20 0 0,0
15.10.2018 14:00:00 14,3 8,9 8 5 23 13 SSE 20 24 -
15.10.2018 13:00:00 14,5 9,9 7 4 24 13 SE 20 28 0,0
15.10.2018 12:00:00 15,0 8,5 3 2 27 15 W 20 43 0,0
15.10.2018 11:00:00 11,8 9,2 9 5 20 11 N 20 50 0,0
15.10.2018 10:00:00 10,0 9,0 2 1 25 14 NNW 20 0 0,0
15.10.2018 09:00:00 8,8 8,3 9 5 25 14 N 20 0 0,2
15.10.2018 08:00:00 8,4 7,8 1 1 27 14 NNW 20 0 -
15.10.2018 07:00:00 8,5 7,8 12 6 32 18 NNW 20 0 1,4
15.10.2018 06:00:00 8,2 7,7 10 5 27 14 N 9 0 2,4
15.10.2018 05:00:00 8,2 7,3 16 9 39 21 NNW 20 0 1,6
15.10.2018 04:00:00 7,8 7,4 3 2 23 13 NNW 12 0 0,4
15.10.2018 03:00:00 7,7 6,8 13 7 31 17 N 20 0 0,8
15.10.2018 02:00:00 7,8 7,0 13 7 29 15 NNW 19 0 -
15.10.2018 01:00:00 8,0 7,1 12 7 27 15 NNW 10 0 4,8
15.10.2018 00:00:00 7,9 7,1 11 6 28 15 N 3,5 0 2,4
14.10.2018 23:00:00 8,5 7,7 7 4 22 12 NNW 13 0 2,0
14.10.2018 22:00:00 8,6 8,0 8 4 21 12 N 8 0 4,8
14.10.2018 21:00:00 9,1 8,7 9 5 28 15 NNW 8 0 4,4
14.10.2018 20:00:00 9,8 9,6 6 3 13 7 N 3,2 0 -
14.10.2018 19:00:00 10,1 9,8 3 2 10 6 SE 1,4 0 6,0
14.10.2018 18:00:00 10,3 9,6 1 1 23 12 NNW 2,5 0 11,8
14.10.2018 17:00:00 11,9 10,5 9 5 26 14 N 1,4 0 6,6
14.10.2018 16:00:00 14,4 13,0 6 3 21 11 ESE 16 0 1,2
14.10.2018 15:00:00 15,4 12,8 8 4 24 13 SSE 20 0 0,6
14.10.2018 14:00:00 16,7 12,6 6 3 38 21 SE 20 0 -
14.10.2018 13:00:00 17,6 12,1 6 4 34 18 ESE 20 7 0,0
14.10.2018 12:00:00 16,6 12,3 5 3 25 14 SE 20 10 0,0
14.10.2018 11:00:00 15,3 13,4 5 3 19 10 S 20 1 0,2
14.10.2018 10:00:00 15,0 12,5 5 3 19 10 SE 20 0 0,2
14.10.2018 09:00:00 14,5 12,7 4 2 24 13 ESE 20 0 0,0
14.10.2018 08:00:00 14,8 12,1 5 3 21 11 SE 20 0 -
14.10.2018 07:00:00 15,0 12,3 5 3 22 12 SE 20 0 0,0
14.10.2018 06:00:00 15,4 12,7 7 4 23 12 SSE 20 0 0,0
14.10.2018 05:00:00 15,2 12,8 4 2 19 11 SE 20 0 0,0
14.10.2018 04:00:00 15,2 13,1 5 3 25 13 SSE 20 0 0,0

tt = Température de l'air
td = dewpoint
ff = Vitesse du vent
fx = gusts
dd = Direction du vent
vv = visibility
sd = Ensoleillement
rr = Quantités de précipitations

stations d'obs. à proximité